createdAt,value
2018-07-03T00:01:01.305Z,5.50
2018-07-03T00:03:30.137Z,3.47
2018-07-03T00:05:58.970Z,4.93
2018-07-03T00:08:27.815Z,6.70
2018-07-03T00:10:56.658Z,7.62
2018-07-03T00:13:25.493Z,6.43
2018-07-03T00:15:54.332Z,5.15
2018-07-03T00:18:23.169Z,3.72
2018-07-03T00:20:52.003Z,4.47
2018-07-03T00:23:20.841Z,4.87
2018-07-03T00:25:49.705Z,4.40
2018-07-03T00:28:18.556Z,5.03
2018-07-03T00:30:47.383Z,4.70
2018-07-03T00:33:16.223Z,3.40
2018-07-03T00:35:45.070Z,3.33
2018-07-03T00:38:13.905Z,5.93
2018-07-03T00:40:42.738Z,2.62
2018-07-03T00:43:11.580Z,4.28
2018-07-03T00:45:41.012Z,10.85
2018-07-03T00:48:09.858Z,5.07
2018-07-03T00:50:38.699Z,5.27
2018-07-03T00:53:07.531Z,4.40
2018-07-03T00:55:36.375Z,3.47
2018-07-03T00:58:05.197Z,9.83
2018-07-03T01:00:34.030Z,6.03
2018-07-03T01:03:02.872Z,4.33
2018-07-03T01:05:31.715Z,7.60
2018-07-03T01:08:00.562Z,5.30
2018-07-03T01:10:29.398Z,4.40
2018-07-03T01:12:58.973Z,6.37
2018-07-03T01:15:27.817Z,2.07
2018-07-03T01:17:56.663Z,12.67
2018-07-03T01:20:25.486Z,8.17
2018-07-03T01:22:54.317Z,1.87
2018-07-03T01:25:23.146Z,4.03
2018-07-03T01:27:52.741Z,6.70
2018-07-03T01:30:21.586Z,4.47
2018-07-03T01:32:50.417Z,5.07
2018-07-03T01:35:19.991Z,6.23
2018-07-03T01:37:48.832Z,5.23
2018-07-03T01:40:17.679Z,4.20
2018-07-03T01:42:46.527Z,6.77
2018-07-03T01:45:15.364Z,3.93
2018-07-03T01:47:44.208Z,2.03
2018-07-03T01:50:13.047Z,4.90
2018-07-03T01:52:41.890Z,5.17
2018-07-03T01:55:10.730Z,6.35
2018-07-03T01:57:39.561Z,5.67
2018-07-03T02:00:08.402Z,4.60
2018-07-03T02:02:37.245Z,4.83
2018-07-03T02:05:06.074Z,4.97
2018-07-03T02:07:34.915Z,4.20
2018-07-03T02:10:03.766Z,4.73
2018-07-03T02:12:33.195Z,4.77
2018-07-03T02:15:02.036Z,4.47
2018-07-03T02:17:30.874Z,6.07
2018-07-03T02:19:59.719Z,4.80
2018-07-03T02:22:28.556Z,3.93
2018-07-03T02:24:57.395Z,2.95
2018-07-03T02:27:26.225Z,4.13
2018-07-03T02:29:55.810Z,5.87
2018-07-03T02:32:24.653Z,4.50
2018-07-03T02:34:53.488Z,3.53
2018-07-03T02:37:22.319Z,5.60
2018-07-03T02:39:51.235Z,3.67
2018-07-03T02:42:20.766Z,3.17
2018-07-03T02:44:49.615Z,2.00
2018-07-03T02:47:18.458Z,4.57
2018-07-03T02:49:47.285Z,3.23
2018-07-03T02:52:16.120Z,3.23
2018-07-03T02:54:44.950Z,4.27
2018-07-03T02:57:13.782Z,7.30
2018-07-03T02:59:42.618Z,2.07
2018-07-03T03:02:12.197Z,2.37
2018-07-03T03:04:41.032Z,3.47
2018-07-03T03:07:09.893Z,4.17
2018-07-03T03:09:38.731Z,2.00
2018-07-03T03:12:07.566Z,5.43
2018-07-03T03:14:36.415Z,5.10
2018-07-03T03:17:05.251Z,2.73
2018-07-03T03:19:34.085Z,3.50
2018-07-03T03:22:02.921Z,5.33
2018-07-03T03:24:31.753Z,2.93
2018-07-03T03:27:00.764Z,4.23
2018-07-03T03:29:29.436Z,3.50
2018-07-03T03:31:58.269Z,3.97
2018-07-03T03:34:27.104Z,3.80
2018-07-03T03:36:55.937Z,1.60
2018-07-03T03:39:24.794Z,4.33
2018-07-03T03:41:53.630Z,3.67
2018-07-03T03:44:22.473Z,3.93
2018-07-03T03:46:51.326Z,3.67
2018-07-03T03:49:20.161Z,7.07
2018-07-03T03:51:49.007Z,4.13
2018-07-03T03:54:17.857Z,3.00
2018-07-03T03:56:46.698Z,5.00
2018-07-03T03:59:15.539Z,6.40
2018-07-03T04:01:44.383Z,4.77
2018-07-03T04:04:13.240Z,3.43
2018-07-03T04:06:42.085Z,3.97
2018-07-03T04:09:11.666Z,3.00
2018-07-03T04:11:40.506Z,4.57
2018-07-03T04:14:09.333Z,4.03
2018-07-03T04:16:38.170Z,4.50
2018-07-03T04:19:07.752Z,5.83
2018-07-03T04:21:36.587Z,3.87
2018-07-03T04:24:05.435Z,6.27
2018-07-03T04:26:34.265Z,3.50
2018-07-03T04:29:03.222Z,5.83
2018-07-03T04:31:31.953Z,8.40
2018-07-03T04:34:00.845Z,5.80
2018-07-03T04:36:29.632Z,10.37
2018-07-03T04:38:58.468Z,4.90
2018-07-03T04:41:28.075Z,9.70
2018-07-03T04:43:56.879Z,5.53
2018-07-03T04:46:26.459Z,5.97
2018-07-03T04:48:55.284Z,7.67
2018-07-03T04:51:24.121Z,3.57
2018-07-03T04:53:52.953Z,6.83
2018-07-03T04:56:21.808Z,11.37
2018-07-03T04:58:50.645Z,4.00
2018-07-03T05:01:19.486Z,2.43
2018-07-03T05:03:48.327Z,11.57
2018-07-03T05:06:17.168Z,5.67
2018-07-03T05:08:45.998Z,6.60
2018-07-03T05:11:15.103Z,4.10
2018-07-03T05:13:43.877Z,2.83
2018-07-03T05:16:12.708Z,4.00
2018-07-03T05:18:41.555Z,5.60
2018-07-03T05:21:10.398Z,3.33
2018-07-03T05:23:39.238Z,6.27
2018-07-03T05:26:08.071Z,4.60
2018-07-03T05:28:36.913Z,7.00
2018-07-03T05:31:05.741Z,6.07
2018-07-03T05:33:34.603Z,9.60
2018-07-03T05:36:04.175Z,5.82
2018-07-03T05:38:33.590Z,5.30
2018-07-03T05:41:03.176Z,11.90
2018-07-03T05:43:32.018Z,5.37
2018-07-03T05:46:00.873Z,4.27
2018-07-03T05:48:29.722Z,4.43
2018-07-03T05:50:58.572Z,3.90
2018-07-03T05:53:28.154Z,3.83
2018-07-03T05:55:57.002Z,3.90
2018-07-03T05:58:25.848Z,6.45
2018-07-03T06:00:54.686Z,9.00
2018-07-03T06:03:23.515Z,7.23
2018-07-03T06:05:52.371Z,3.67
2018-07-03T06:08:21.220Z,7.53
2018-07-03T06:10:50.975Z,9.27
2018-07-03T06:13:19.645Z,6.43
2018-07-03T06:15:48.497Z,8.13
2018-07-03T06:18:17.335Z,3.17
2018-07-03T06:20:46.178Z,7.87
2018-07-03T06:23:15.764Z,3.57
2018-07-03T06:25:44.601Z,6.55
2018-07-03T06:28:13.448Z,4.90
2018-07-03T06:30:42.281Z,4.93
2018-07-03T06:33:11.125Z,7.03
2018-07-03T06:35:39.967Z,4.80
2018-07-03T06:38:08.800Z,8.07
2018-07-03T06:40:37.650Z,3.20
2018-07-03T06:43:06.631Z,7.90
2018-07-03T06:45:35.352Z,7.73
2018-07-03T06:48:04.185Z,4.17
2018-07-03T06:50:33.774Z,4.33
2018-07-03T06:53:02.631Z,6.50
2018-07-03T06:55:31.462Z,4.80
2018-07-03T06:58:01.059Z,18.40
2018-07-03T07:00:29.895Z,9.13
2018-07-03T07:02:58.734Z,6.17
2018-07-03T07:05:28.318Z,5.00
2018-07-03T07:07:57.159Z,5.37
2018-07-03T07:10:26.011Z,6.43
2018-07-03T07:12:55.719Z,8.17
2018-07-03T07:15:24.566Z,6.10
2018-07-03T07:17:53.403Z,5.18
2018-07-03T07:20:22.245Z,3.67
2018-07-03T07:22:51.079Z,6.20
2018-07-03T07:25:20.660Z,2.97
2018-07-03T07:27:49.485Z,4.30
2018-07-03T07:30:19.070Z,5.73
2018-07-03T07:32:47.921Z,5.57
2018-07-03T07:35:16.768Z,5.80
2018-07-03T07:37:46.397Z,4.78
2018-07-03T07:40:15.244Z,6.20
2018-07-03T07:42:44.162Z,8.33
2018-07-03T07:45:12.914Z,2.55
2018-07-03T07:47:41.764Z,2.20
2018-07-03T07:50:10.613Z,4.93
2018-07-03T07:52:40.229Z,6.90
2018-07-03T07:55:09.058Z,2.80
2018-07-03T07:57:38.643Z,9.43
2018-07-03T08:00:07.501Z,5.57
2018-07-03T08:02:36.339Z,5.13
2018-07-03T08:05:06.104Z,1.90
2018-07-03T08:07:34.944Z,10.00
2018-07-03T08:10:04.385Z,2.78
2018-07-03T08:12:33.217Z,4.18
2018-07-03T08:15:02.068Z,6.80
2018-07-03T08:17:30.906Z,2.67
2018-07-03T08:19:59.754Z,5.65
2018-07-03T08:22:28.605Z,4.30
2018-07-03T08:24:58.182Z,3.12
2018-07-03T08:27:27.026Z,7.95
2018-07-03T08:29:55.861Z,2.83
2018-07-03T08:32:24.766Z,3.50
2018-07-03T08:34:53.560Z,4.55
2018-07-03T08:37:22.432Z,3.65
2018-07-03T08:39:51.263Z,5.50
2018-07-03T08:42:20.100Z,3.47
2018-07-03T08:44:48.941Z,2.10
2018-07-03T08:47:17.786Z,2.80
2018-07-03T08:49:46.624Z,4.32
2018-07-03T08:52:15.471Z,6.53
2018-07-03T08:54:45.054Z,4.55
2018-07-03T08:57:13.903Z,4.35
2018-07-03T08:59:43.478Z,2.92
2018-07-03T09:02:12.325Z,3.53
2018-07-03T09:04:41.165Z,4.90
2018-07-03T09:07:10.010Z,3.75
2018-07-03T09:09:38.846Z,4.28
2018-07-03T09:12:08.414Z,2.75
2018-07-03T09:14:37.247Z,5.57
2018-07-03T09:17:06.096Z,3.78
2018-07-03T09:19:34.935Z,7.10
2018-07-03T09:22:04.518Z,4.85
2018-07-03T09:24:33.354Z,4.43
2018-07-03T09:27:02.213Z,5.55
2018-07-03T09:29:31.063Z,2.17
2018-07-03T09:31:59.908Z,3.92
2018-07-03T09:34:28.758Z,5.32
2018-07-03T09:36:57.594Z,2.95
2018-07-03T09:39:26.430Z,2.35
2018-07-03T09:41:55.278Z,2.25
2018-07-03T09:44:24.859Z,2.97
2018-07-03T09:46:53.720Z,5.72
2018-07-03T09:49:22.562Z,5.25
2018-07-03T09:51:52.173Z,3.05
2018-07-03T09:54:21.023Z,2.58
2018-07-03T09:56:49.867Z,2.60
2018-07-03T09:59:18.717Z,3.00
2018-07-03T10:01:47.557Z,2.70
2018-07-03T10:04:16.400Z,4.62
2018-07-03T10:06:45.237Z,4.65
2018-07-03T10:09:14.085Z,3.08
2018-07-03T10:11:42.930Z,3.15
2018-07-03T10:14:11.775Z,2.35
2018-07-03T10:16:41.386Z,2.72
2018-07-03T10:19:10.228Z,2.20
2018-07-03T10:21:39.088Z,5.35
2018-07-03T10:24:08.648Z,2.80
2018-07-03T10:26:37.486Z,1.70
2018-07-03T10:29:06.346Z,1.67
2018-07-03T10:31:35.938Z,3.90
2018-07-03T10:34:04.782Z,2.22
2018-07-03T10:36:33.629Z,2.97
2018-07-03T10:39:02.470Z,2.65
2018-07-03T10:41:31.301Z,3.40
2018-07-03T10:44:00.177Z,4.10
2018-07-03T10:46:29.031Z,2.92
2018-07-03T10:48:57.868Z,4.85
2018-07-03T10:51:26.702Z,5.00
2018-07-03T10:53:55.540Z,4.93
2018-07-03T10:56:24.390Z,2.65
2018-07-03T10:58:53.222Z,3.55
2018-07-03T11:01:22.059Z,3.25
2018-07-03T11:03:50.894Z,4.57
2018-07-03T11:06:19.755Z,2.17
2018-07-03T11:08:48.599Z,1.85
2018-07-03T11:11:17.431Z,1.75
2018-07-03T11:13:46.346Z,4.70
2018-07-03T11:16:15.146Z,4.30
2018-07-03T11:18:44.730Z,4.03
2018-07-03T11:21:13.590Z,2.42
2018-07-03T11:23:42.415Z,1.62
2018-07-03T11:26:11.260Z,2.22
2018-07-03T11:28:40.091Z,1.98
2018-07-03T11:31:08.937Z,4.65
2018-07-03T11:33:37.800Z,2.85
2018-07-03T11:36:06.617Z,1.37
2018-07-03T11:38:35.454Z,4.15
2018-07-03T11:41:04.292Z,2.67
2018-07-03T11:43:34.505Z,2.20
2018-07-03T11:46:04.064Z,1.92
2018-07-03T11:48:32.911Z,1.40
2018-07-03T11:51:01.766Z,4.18
2018-07-03T11:53:30.659Z,1.00
2018-07-03T11:56:00.210Z,2.90
2018-07-03T11:58:29.095Z,1.62
2018-07-03T12:00:57.943Z,2.85
2018-07-03T12:03:26.829Z,5.22
2018-07-03T12:05:55.624Z,2.33
2018-07-03T12:08:24.470Z,1.98
2018-07-03T12:10:53.305Z,1.95
2018-07-03T12:13:22.159Z,2.15
2018-07-03T12:15:51.000Z,2.25
2018-07-03T12:18:19.850Z,2.55
2018-07-03T12:20:48.697Z,3.58
2018-07-03T12:23:18.283Z,1.58
2018-07-03T12:25:47.142Z,1.12
2018-07-03T12:28:15.983Z,3.20
2018-07-03T12:30:45.564Z,2.37
2018-07-03T12:33:14.405Z,3.17
2018-07-03T12:35:43.255Z,2.55
2018-07-03T12:38:12.104Z,3.37
2018-07-03T12:40:40.937Z,2.47
2018-07-03T12:43:09.819Z,2.10
2018-07-03T12:45:39.388Z,3.80
2018-07-03T12:48:08.228Z,1.48
2018-07-03T12:50:37.804Z,2.08
2018-07-03T12:53:06.633Z,2.03
2018-07-03T12:55:35.479Z,4.15
2018-07-03T12:58:04.364Z,2.87
2018-07-03T13:00:33.174Z,3.05
2018-07-03T13:03:02.039Z,2.95
2018-07-03T13:05:30.883Z,3.65
2018-07-03T13:07:59.806Z,3.60
2018-07-03T13:10:28.563Z,1.25
2018-07-03T13:12:57.427Z,5.18
2018-07-03T13:15:26.284Z,1.60
2018-07-03T13:17:55.137Z,3.15
2018-07-03T13:20:23.990Z,6.57
2018-07-03T13:22:52.826Z,2.92
2018-07-03T13:25:21.681Z,3.42
2018-07-03T13:27:50.519Z,2.55
2018-07-03T13:30:19.368Z,2.03
2018-07-03T13:32:48.946Z,1.80
2018-07-03T13:35:17.788Z,2.47
2018-07-03T13:37:46.637Z,2.75
2018-07-03T13:40:15.485Z,2.15
2018-07-03T13:42:44.319Z,2.30
2018-07-03T13:45:13.892Z,3.78
2018-07-03T13:47:42.742Z,3.42
2018-07-03T13:50:11.592Z,1.92
2018-07-03T13:52:40.473Z,3.50
2018-07-03T13:55:09.301Z,4.60
2018-07-03T13:57:38.891Z,4.60
2018-07-03T14:00:08.497Z,5.25
2018-07-03T14:02:37.331Z,5.30
2018-07-03T14:05:06.197Z,3.87
2018-07-03T14:07:35.786Z,3.10
2018-07-03T14:10:05.369Z,3.35
2018-07-03T14:12:34.214Z,4.70
2018-07-03T14:15:03.059Z,2.87
2018-07-03T14:17:31.903Z,2.83
2018-07-03T14:20:00.752Z,2.28
2018-07-03T14:22:29.583Z,4.32
2018-07-03T14:24:58.438Z,3.17
2018-07-03T14:27:27.261Z,3.83
2018-07-03T14:29:56.100Z,3.35
2018-07-03T14:32:26.149Z,1.80
2018-07-03T14:34:54.953Z,4.50
2018-07-03T14:37:24.657Z,1.30
2018-07-03T14:39:53.513Z,4.85
2018-07-03T14:42:22.343Z,3.90
2018-07-03T14:44:51.196Z,3.97
2018-07-03T14:47:20.039Z,3.10
2018-07-03T14:49:48.884Z,3.00
2018-07-03T14:52:17.743Z,4.37
2018-07-03T14:54:46.574Z,4.28
2018-07-03T14:57:15.422Z,3.60
2018-07-03T14:59:44.266Z,2.60
2018-07-03T15:02:13.877Z,2.47
2018-07-03T15:04:42.690Z,3.78
2018-07-03T15:07:11.535Z,3.17
2018-07-03T15:09:40.378Z,3.28
2018-07-03T15:12:09.771Z,5.13
2018-07-03T15:14:38.055Z,5.50
2018-07-03T15:17:06.909Z,5.03
2018-07-03T15:19:35.768Z,2.85
2018-07-03T15:22:04.671Z,1.40
2018-07-03T15:24:33.512Z,3.30
2018-07-03T15:27:02.362Z,5.50
2018-07-03T15:29:31.945Z,3.35
2018-07-03T15:32:00.783Z,5.40
2018-07-03T15:34:29.626Z,1.70
2018-07-03T15:36:58.489Z,2.20
2018-07-03T15:39:27.343Z,4.22
2018-07-03T15:41:56.209Z,3.00
2018-07-03T15:44:39.918Z,5.45
2018-07-03T15:47:08.750Z,2.08
2018-07-03T15:49:38.345Z,2.25
2018-07-03T15:52:07.197Z,4.03
2018-07-03T15:54:36.039Z,3.83
2018-07-03T15:57:04.898Z,3.67
2018-07-03T15:59:33.749Z,2.83
2018-07-03T16:02:02.592Z,5.00
2018-07-03T16:04:35.068Z,3.12
2018-07-03T16:07:03.919Z,2.83
2018-07-03T16:09:32.792Z,5.00
2018-07-03T16:12:01.612Z,3.55
2018-07-03T16:14:30.443Z,4.37
2018-07-03T16:16:59.297Z,3.28
2018-07-03T16:19:28.142Z,1.73
2018-07-03T16:21:56.984Z,2.87
2018-07-03T16:24:25.830Z,3.90
2018-07-03T16:26:54.662Z,3.42
2018-07-03T16:29:23.500Z,2.95
2018-07-03T16:31:52.344Z,3.12
2018-07-03T16:34:21.190Z,6.05
2018-07-03T16:36:50.044Z,3.90
2018-07-03T16:39:18.911Z,4.53
2018-07-03T16:41:47.745Z,5.20
2018-07-03T16:44:16.597Z,3.40
2018-07-03T16:46:45.448Z,3.40
2018-07-03T16:49:14.288Z,2.40
2018-07-03T16:51:43.126Z,1.85
2018-07-03T16:54:11.977Z,3.20
2018-07-03T16:56:40.825Z,2.65
2018-07-03T16:59:09.661Z,8.45
2018-07-03T17:01:38.632Z,2.12
2018-07-03T17:04:07.359Z,3.30
2018-07-03T17:06:36.214Z,3.65
2018-07-03T17:09:05.819Z,3.12
2018-07-03T17:11:35.405Z,3.22
2018-07-03T17:14:04.238Z,3.65
2018-07-03T17:16:33.081Z,3.90
2018-07-03T17:19:01.934Z,3.05
2018-07-03T17:21:31.506Z,6.18
2018-07-03T17:24:01.094Z,4.20
2018-07-03T17:26:29.944Z,8.38
2018-07-03T17:28:58.800Z,4.43
2018-07-03T17:31:27.651Z,9.07
2018-07-03T17:33:57.273Z,4.00
2018-07-03T17:36:26.077Z,7.05
2018-07-03T17:38:55.667Z,4.53
2018-07-03T17:41:38.171Z,4.90
2018-07-03T17:47:02.154Z,5.60
2018-07-03T17:49:31.003Z,1.90
2018-07-03T17:51:59.839Z,4.75
2018-07-03T17:54:28.689Z,15.15
2018-07-03T17:56:57.530Z,2.35
2018-07-03T17:59:27.441Z,4.37
2018-07-03T18:01:55.944Z,7.28
2018-07-03T18:04:24.782Z,5.75
2018-07-03T18:06:53.624Z,6.05
2018-07-03T18:09:23.241Z,4.05
2018-07-03T18:11:52.827Z,5.07
2018-07-03T18:14:21.712Z,3.12
2018-07-03T18:16:52.112Z,4.43
2018-07-03T18:19:21.714Z,6.47
2018-07-03T18:21:50.560Z,2.42
2018-07-03T18:24:19.516Z,5.00
2018-07-03T18:26:48.382Z,6.00
2018-07-03T18:29:17.237Z,10.77
2018-07-03T18:31:46.826Z,6.15
2018-07-03T18:34:15.813Z,5.72
2018-07-03T18:36:44.649Z,3.75
2018-07-03T18:39:13.488Z,4.97
2018-07-03T18:41:42.368Z,4.18
2018-07-03T18:44:11.177Z,7.00
2018-07-03T18:46:40.022Z,6.10
2018-07-03T18:49:08.868Z,6.68
2018-07-03T18:51:37.702Z,4.62
2018-07-03T18:54:06.543Z,8.15
2018-07-03T18:56:35.376Z,6.62
2018-07-03T18:59:04.244Z,5.93
2018-07-03T19:01:33.890Z,14.50
2018-07-03T19:04:02.680Z,14.43
2018-07-03T19:06:31.526Z,20.20
2018-07-03T19:09:00.378Z,17.73
2018-07-03T19:11:29.234Z,11.45
2018-07-03T19:13:58.079Z,11.00
2018-07-03T19:16:26.975Z,5.65
2018-07-03T19:18:55.786Z,6.32
2018-07-03T19:21:24.644Z,5.47
2018-07-03T19:23:54.221Z,4.47
2018-07-03T19:26:23.063Z,5.12
2018-07-03T19:28:52.659Z,3.53
2018-07-03T19:31:21.501Z,4.67
2018-07-03T19:33:50.523Z,3.35
2018-07-03T19:36:19.893Z,7.07
2018-07-03T19:38:48.701Z,11.05
2018-07-03T19:41:17.536Z,7.12
2018-07-03T19:43:46.388Z,7.12
2018-07-03T19:46:15.243Z,7.43
2018-07-03T19:48:44.128Z,9.15
2018-07-03T19:51:13.709Z,7.47
2018-07-03T19:53:42.550Z,7.35
2018-07-03T19:56:11.400Z,12.35
2018-07-03T19:58:40.244Z,21.37
2018-07-03T20:01:09.096Z,17.92
2018-07-03T20:03:38.527Z,19.37
2018-07-03T20:06:07.373Z,26.70
2018-07-03T20:08:36.230Z,21.55
2018-07-03T20:11:05.090Z,14.38
2018-07-03T20:13:33.923Z,8.43
2018-07-03T20:16:02.762Z,10.90
2018-07-03T20:18:32.344Z,12.10
2018-07-03T20:21:01.194Z,7.90
2018-07-03T20:23:30.037Z,11.25
2018-07-03T20:25:58.893Z,12.30
2018-07-03T20:28:27.729Z,9.05
2018-07-03T20:30:57.324Z,11.55
2018-07-03T20:33:26.899Z,11.95
2018-07-03T20:35:55.752Z,9.73
2018-07-03T20:38:24.605Z,6.55
2018-07-03T20:40:53.441Z,5.97
2018-07-03T20:43:22.290Z,6.65
2018-07-03T20:45:51.883Z,6.35
2018-07-03T20:48:20.727Z,8.70
2018-07-03T20:50:49.566Z,5.22
2018-07-03T20:53:18.410Z,4.78
2018-07-03T20:55:47.252Z,11.30
2018-07-03T20:58:16.099Z,7.70
2018-07-03T21:00:44.954Z,12.40
2018-07-03T21:03:13.800Z,9.77
2018-07-03T21:05:42.662Z,9.45
2018-07-03T21:08:11.480Z,6.47
2018-07-03T21:10:40.314Z,10.00
2018-07-03T21:13:09.192Z,7.22
2018-07-03T21:15:38.832Z,8.70
2018-07-03T21:18:08.376Z,7.05
2018-07-03T21:20:37.217Z,7.95
2018-07-03T21:23:06.065Z,7.60
2018-07-03T21:25:34.964Z,7.90
2018-07-03T21:28:03.832Z,11.25
2018-07-03T21:30:32.684Z,5.55
2018-07-03T21:33:01.538Z,4.82
2018-07-03T21:35:30.376Z,6.00
2018-07-03T21:37:59.215Z,7.78
2018-07-03T21:40:28.057Z,4.65
2018-07-03T21:42:56.904Z,3.30
2018-07-03T21:45:25.755Z,6.32
2018-07-03T21:47:54.598Z,6.10
2018-07-03T21:50:23.443Z,9.20
2018-07-03T21:52:52.278Z,4.50
2018-07-03T21:55:21.127Z,5.10
2018-07-03T21:57:49.979Z,5.85
2018-07-03T22:00:18.841Z,18.35
2018-07-03T22:02:47.696Z,13.02
2018-07-03T22:05:17.281Z,10.98
2018-07-03T22:07:46.140Z,12.77
2018-07-03T22:10:14.975Z,12.75
2018-07-03T22:12:43.853Z,10.00
2018-07-03T22:15:12.752Z,11.55
2018-07-03T22:17:41.606Z,8.98
2018-07-03T22:20:10.450Z,10.63
2018-07-03T22:22:39.296Z,6.15
2018-07-03T22:25:08.134Z,5.95
2018-07-03T22:27:36.990Z,7.18
2018-07-03T22:30:05.827Z,7.22
2018-07-03T22:32:34.678Z,6.65
2018-07-03T22:35:03.526Z,7.10
2018-07-03T22:37:32.370Z,8.40
2018-07-03T22:40:01.203Z,4.55
2018-07-03T22:42:30.049Z,7.65
2018-07-03T22:44:58.896Z,5.32
2018-07-03T22:47:27.748Z,4.93
2018-07-03T22:49:56.604Z,6.53
2018-07-03T22:52:25.445Z,6.47
2018-07-03T22:54:55.029Z,4.53
2018-07-03T22:57:23.867Z,5.20
2018-07-03T22:59:52.710Z,4.18
2018-07-03T23:02:22.292Z,9.27
2018-07-03T23:04:51.120Z,8.00
2018-07-03T23:07:20.707Z,5.37
2018-07-03T23:09:49.565Z,6.53
2018-07-03T23:12:18.419Z,7.60
2018-07-03T23:14:47.328Z,8.00
2018-07-03T23:17:16.880Z,5.78
2018-07-03T23:19:45.733Z,7.85
2018-07-03T23:22:14.592Z,7.40
2018-07-03T23:24:43.448Z,4.07
2018-07-03T23:27:12.289Z,6.75
2018-07-03T23:29:41.126Z,5.93
2018-07-03T23:32:09.960Z,7.55
2018-07-03T23:34:38.803Z,5.37
2018-07-03T23:37:07.654Z,4.05
2018-07-03T23:39:36.496Z,6.05
2018-07-03T23:42:05.339Z,5.78
2018-07-03T23:44:34.181Z,9.55
2018-07-03T23:47:21.585Z,5.95
2018-07-03T23:50:08.292Z,4.07
2018-07-03T23:52:57.792Z,3.50
2018-07-03T23:55:44.504Z,2.90
2018-07-03T23:58:31.141Z,6.53
